Time;durP1;ratioP1;P1;durP2;ratioP2;P2;SDS_P1;SDS_P2;PMS_P1;PMS_P2;Temp;Humidity;BMP_temperature;BMP_pressure;BME280_temperature;BME280_humidity;BME280_pressure;Samples;Min_cycle;Max_cycle;Signal;HPM_P1;HPM_P2
2023/04/17 00:01:38;;;;;;;42.58;25.67;;;9.00;99.90;;;;;;5066197;28;20470;-32
2023/04/17 00:04:09;;;;;;;40.42;26.25;;;8.90;99.90;;;;;;5071237;28;20047;-32
2023/04/17 00:06:36;;;;;;;40.50;27.05;;;8.90;99.90;;;;;;5072362;28;20104;-33
2023/04/17 00:09:02;;;;;;;34.47;24.85;;;8.90;99.90;;;;;;5068017;28;20523;-33
2023/04/17 00:11:28;;;;;;;37.70;24.83;;;8.90;99.90;;;;;;5064161;28;20079;-33
2023/04/17 00:13:54;;;;;;;42.28;26.08;;;8.80;99.90;;;;;;5065725;28;20064;-33
2023/04/17 00:16:20;;;;;;;40.17;27.00;;;8.90;99.90;;;;;;5074154;28;20044;-33
2023/04/17 00:18:45;;;;;;;38.65;25.05;;;8.90;99.90;;;;;;5073867;28;20100;-33
2023/04/17 00:21:14;;;;;;;41.58;26.52;;;8.90;99.90;;;;;;5074124;28;20036;-33
2023/04/17 00:23:40;;;;;;;41.03;24.73;;;9.00;99.90;;;;;;5067806;28;20036;-33
2023/04/17 00:26:06;;;;;;;38.75;25.08;;;8.90;99.90;;;;;;5073430;28;20051;-33
2023/04/17 00:28:32;;;;;;;41.83;25.77;;;8.90;99.90;;;;;;5055959;28;20361;-33
2023/04/17 00:30:57;;;;;;;40.67;25.83;;;8.90;99.90;;;;;;5065920;28;20036;-33
2023/04/17 00:33:23;;;;;;;42.55;26.65;;;8.80;99.90;;;;;;5061437;28;20404;-34
2023/04/17 00:35:50;;;;;;;44.97;26.95;;;8.90;99.90;;;;;;5071455;28;20115;-34
2023/04/17 00:38:16;;;;;;;43.75;26.27;;;8.80;99.90;;;;;;5073866;28;20051;-34
2023/04/17 00:40:44;;;;;;;40.50;25.80;;;8.80;99.90;;;;;;5073850;28;20139;-34
2023/04/17 00:43:09;;;;;;;47.58;26.15;;;8.80;99.90;;;;;;5069420;28;20041;-34
2023/04/17 00:45:38;;;;;;;43.58;28.05;;;8.80;99.90;;;;;;5067682;28;20036;-34
2023/04/17 00:48:06;;;;;;;46.17;26.63;;;8.90;99.90;;;;;;5064085;28;20055;-34
2023/04/17 00:50:32;;;;;;;45.63;27.00;;;8.80;99.90;;;;;;5071669;28;20032;-34
2023/04/17 00:52:59;;;;;;;46.70;28.67;;;8.90;99.90;;;;;;5073677;28;20480;-34
2023/04/17 00:55:27;;;;;;;50.90;28.52;;;8.90;99.90;;;;;;5065183;28;20033;-34
2023/04/17 00:57:54;;;;;;;44.88;26.73;;;8.90;99.90;;;;;;5065558;28;20071;-34
2023/04/17 01:00:19;;;;;;;43.97;27.63;;;8.80;99.90;;;;;;5070819;28;20047;-34
2023/04/17 01:02:45;;;;;;;46.72;27.95;;;8.80;99.90;;;;;;5089631;28;20036;-34
2023/04/17 01:05:11;;;;;;;53.63;28.10;;;8.90;99.90;;;;;;5065839;28;20174;-34
2023/04/17 01:07:40;;;;;;;48.78;28.48;;;8.90;99.90;;;;;;5073666;28;20075;-34
2023/04/17 01:10:06;;;;;;;48.88;27.95;;;8.90;99.90;;;;;;5059429;28;20119;-34
2023/04/17 01:12:32;;;;;;;46.40;28.50;;;8.80;99.90;;;;;;5062708;28;20035;-34
2023/04/17 01:14:58;;;;;;;49.63;29.50;;;8.90;99.90;;;;;;5062426;28;20032;-34
2023/04/17 01:17:27;;;;;;;48.38;28.08;;;8.90;99.90;;;;;;5053511;28;20064;-34
2023/04/17 01:19:53;;;;;;;51.35;29.10;;;8.90;99.90;;;;;;5069321;28;20036;-34
2023/04/17 01:22:19;;;;;;;50.90;30.27;;;8.80;99.90;;;;;;5073508;28;20492;-34
2023/04/17 01:24:46;;;;;;;48.08;28.67;;;8.80;99.90;;;;;;5058842;28;20076;-34
2023/04/17 01:27:12;;;;;;;50.80;29.83;;;8.80;99.90;;;;;;5057627;28;20119;-33
2023/04/17 01:29:39;;;;;;;47.67;28.63;;;8.80;99.90;;;;;;5059638;28;20040;-34
2023/04/17 01:32:05;;;;;;;54.95;30.13;;;8.80;99.90;;;;;;5073474;28;20058;-33
2023/04/17 01:34:31;;;;;;;53.47;29.30;;;8.80;99.90;;;;;;5084967;28;20039;-34
2023/04/17 01:36:57;;;;;;;52.83;29.95;;;8.90;99.90;;;;;;5073178;28;20032;-34
2023/04/17 01:39:23;;;;;;;50.85;30.63;;;8.80;99.90;;;;;;5068355;28;20044;-33
2023/04/17 01:41:48;;;;;;;58.28;31.90;;;8.80;99.90;;;;;;5065591;28;20037;-33
2023/04/17 01:44:14;;;;;;;53.20;30.25;;;8.90;99.90;;;;;;5050950;28;20134;-34
2023/04/17 01:46:40;;;;;;;55.80;31.30;;;8.80;99.90;;;;;;5066656;28;20180;-34
2023/04/17 01:49:05;;;;;;;58.45;30.90;;;8.80;99.90;;;;;;5062758;28;20040;-34
2023/04/17 01:51:31;;;;;;;55.05;30.80;;;8.80;99.90;;;;;;5073356;28;20127;-34
2023/04/17 01:53:57;;;;;;;56.30;31.13;;;8.90;99.90;;;;;;5069869;28;20059;-34
2023/04/17 01:56:23;;;;;;;62.78;33.45;;;8.80;99.90;;;;;;5067828;28;20032;-34
2023/04/17 01:58:50;;;;;;;57.13;30.90;;;8.80;99.90;;;;;;5072794;28;20028;-34
2023/04/17 02:01:15;;;;;;;57.72;32.30;;;8.80;99.90;;;;;;5071400;28;20128;-34
2023/04/17 02:03:41;;;;;;;58.05;31.88;;;8.70;99.90;;;;;;5093777;28;20086;-34
2023/04/17 02:06:07;;;;;;;59.38;31.95;;;8.80;99.90;;;;;;5066099;28;20043;-34
2023/04/17 02:08:33;;;;;;;56.13;31.42;;;8.80;99.90;;;;;;5076632;28;20043;-34
2023/04/17 02:10:59;;;;;;;61.63;33.63;;;8.90;99.90;;;;;;5076357;28;20040;-37
2023/04/17 02:13:24;;;;;;;56.05;32.30;;;8.70;99.90;;;;;;5074708;28;20046;-36
2023/04/17 02:15:50;;;;;;;58.30;32.55;;;8.80;99.90;;;;;;5069104;28;20040;-34
2023/04/17 02:18:19;;;;;;;55.63;31.70;;;8.70;99.90;;;;;;5066786;28;20404;-34
2023/04/17 02:20:45;;;;;;;61.67;32.65;;;8.80;99.90;;;;;;5061419;28;20068;-34
2023/04/17 02:23:11;;;;;;;59.67;33.22;;;8.90;99.90;;;;;;5065448;28;20074;-34
2023/04/17 02:25:37;;;;;;;57.60;32.22;;;8.80;99.90;;;;;;5074907;28;20039;-35
2023/04/17 02:28:03;;;;;;;57.90;32.13;;;8.90;99.90;;;;;;5068484;28;20134;-35
2023/04/17 02:30:28;;;;;;;61.70;32.97;;;8.80;99.90;;;;;;5067310;28;20374;-35
2023/04/17 02:32:55;;;;;;;61.67;34.58;;;8.80;99.90;;;;;;5064018;28;20039;-35
2023/04/17 02:35:22;;;;;;;61.95;34.50;;;8.80;99.90;;;;;;5056697;28;20044;-35
2023/04/17 02:37:49;;;;;;;64.47;33.17;;;8.80;99.90;;;;;;5071973;28;20036;-35
2023/04/17 02:40:15;;;;;;;64.20;33.45;;;8.80;99.90;;;;;;5063317;28;20079;-35
2023/04/17 02:42:40;;;;;;;56.83;32.88;;;8.70;99.90;;;;;;5071624;28;20068;-35
2023/04/17 02:45:07;;;;;;;60.40;34.30;;;8.90;99.90;;;;;;5074423;28;20094;-35
2023/04/17 02:47:33;;;;;;;62.90;35.13;;;8.90;99.90;;;;;;5064115;28;20093;-35
2023/04/17 02:50:01;;;;;;;67.57;34.47;;;8.70;99.90;;;;;;5061621;28;20037;-35
2023/04/17 02:52:31;;;;;;;61.70;33.55;;;8.70;99.90;;;;;;5064376;28;20041;-35
2023/04/17 02:54:57;;;;;;;62.53;33.63;;;8.80;99.90;;;;;;5071615;28;20028;-35
2023/04/17 02:57:23;;;;;;;58.10;33.28;;;8.70;99.90;;;;;;5069969;28;20036;-36
2023/04/17 02:59:49;;;;;;;58.25;33.28;;;8.70;99.90;;;;;;5067791;28;20037;-35
2023/04/17 03:02:20;;;;;;;61.10;34.53;;;8.90;99.90;;;;;;5070135;28;20040;-35
2023/04/17 03:04:48;;;;;;;61.05;33.72;;;8.80;99.90;;;;;;5069270;28;20040;-35
2023/04/17 03:07:18;;;;;;;60.45;34.58;;;8.70;99.90;;;;;;5061547;28;20043;-35
2023/04/17 03:09:47;;;;;;;58.42;33.58;;;8.90;99.90;;;;;;5061111;28;20585;-35
2023/04/17 03:12:16;;;;;;;62.58;33.65;;;8.80;99.90;;;;;;5064404;28;20041;-35
2023/04/17 03:14:42;;;;;;;59.30;33.67;;;8.80;99.90;;;;;;5063150;28;20036;-35
2023/04/17 03:17:10;;;;;;;59.33;33.60;;;8.80;99.90;;;;;;5058675;28;20043;-35
2023/04/17 03:19:36;;;;;;;63.33;35.00;;;8.80;99.90;;;;;;5065360;28;20038;-35
2023/04/17 03:22:02;;;;;;;62.97;35.58;;;8.70;99.90;;;;;;5060912;28;20036;-40
2023/04/17 03:24:28;;;;;;;60.63;35.22;;;8.80;99.90;;;;;;5066216;28;20493;-37
2023/04/17 03:26:55;;;;;;;58.13;34.58;;;8.80;99.90;;;;;;5067372;28;20493;-36
2023/04/17 03:29:20;;;;;;;64.40;35.63;;;8.70;99.90;;;;;;5067061;28;20047;-36
2023/04/17 03:31:46;;;;;;;68.50;37.45;;;8.80;99.90;;;;;;5068741;28;20045;-36
2023/04/17 03:34:12;;;;;;;56.97;33.88;;;8.80;99.90;;;;;;5065863;28;20035;-36
2023/04/17 03:36:37;;;;;;;60.63;34.20;;;8.70;99.90;;;;;;5073317;28;20037;-37
2023/04/17 03:39:03;;;;;;;59.10;33.85;;;8.70;99.90;;;;;;5074419;28;20061;-37
2023/04/17 03:41:29;;;;;;;61.45;35.13;;;8.70;99.90;;;;;;5046793;28;20071;-36
2023/04/17 03:43:54;;;;;;;53.85;33.65;;;8.70;99.90;;;;;;5067520;28;20401;-36
2023/04/17 03:46:20;;;;;;;63.33;33.65;;;8.70;99.90;;;;;;5064677;28;20521;-36
2023/04/17 03:48:46;;;;;;;58.72;33.95;;;8.80;99.90;;;;;;5065783;28;20043;-37
2023/04/17 03:51:12;;;;;;;63.22;35.80;;;8.80;99.90;;;;;;5056887;28;20052;-36
2023/04/17 03:53:37;;;;;;;63.60;36.95;;;8.80;99.90;;;;;;5059443;28;20099;-38
2023/04/17 03:56:03;;;;;;;65.88;36.15;;;8.70;99.90;;;;;;5070003;28;20035;-36
2023/04/17 03:58:29;;;;;;;64.32;37.28;;;8.70;99.90;;;;;;5064223;28;20040;-36
2023/04/17 04:00:57;;;;;;;64.05;36.75;;;8.70;99.90;;;;;;5058692;28;20036;-36
2023/04/17 04:03:27;;;;;;;63.38;35.88;;;8.80;99.90;;;;;;5070255;28;20036;-37
2023/04/17 04:05:53;;;;;;;61.55;35.83;;;8.70;99.90;;;;;;5070617;28;20054;-36
2023/04/17 04:08:19;;;;;;;66.28;36.78;;;8.70;99.90;;;;;;5070948;28;20044;-37
2023/04/17 04:10:45;;;;;;;65.82;37.65;;;8.60;99.90;;;;;;5067109;28;20044;-37
2023/04/17 04:13:11;;;;;;;65.88;38.20;;;8.70;99.90;;;;;;5072025;28;20105;-37
2023/04/17 04:15:37;;;;;;;64.53;36.50;;;8.60;99.90;;;;;;5064699;28;20024;-36
2023/04/17 04:18:03;;;;;;;71.93;38.55;;;8.60;99.90;;;;;;5067039;28;20040;-37
2023/04/17 04:20:29;;;;;;;64.35;37.10;;;8.60;99.90;;;;;;5059057;28;20176;-36
2023/04/17 04:22:56;;;;;;;65.35;37.33;;;8.80;99.90;;;;;;5064519;28;20036;-37
2023/04/17 04:25:25;;;;;;;61.55;35.92;;;8.60;99.90;;;;;;5067270;28;20447;-37
2023/04/17 04:27:52;;;;;;;60.20;34.85;;;8.60;99.90;;;;;;5091239;28;20036;-36
2023/04/17 04:30:20;;;;;;;65.28;37.85;;;8.60;99.90;;;;;;5090650;28;20550;-37
2023/04/17 04:32:46;;;;;;;61.63;34.83;;;8.60;99.90;;;;;;5057270;28;20110;-37
2023/04/17 04:35:14;;;;;;;63.20;36.60;;;8.60;99.90;;;;;;5071968;28;20478;-36
2023/04/17 04:37:41;;;;;;;64.88;35.80;;;8.50;99.90;;;;;;5071170;28;20104;-36
2023/04/17 04:40:11;;;;;;;62.30;35.53;;;8.60;99.90;;;;;;5070841;28;20108;-36
2023/04/17 04:42:38;;;;;;;62.10;35.95;;;8.50;99.90;;;;;;5079100;28;20032;-36
2023/04/17 04:45:05;;;;;;;61.67;36.80;;;8.50;99.90;;;;;;5064225;28;20085;-36
2023/04/17 04:47:31;;;;;;;59.65;34.40;;;8.50;99.90;;;;;;5061384;28;20047;-36
2023/04/17 04:49:57;;;;;;;60.72;36.08;;;8.60;99.90;;;;;;5083437;28;20033;-41
2023/04/17 04:52:22;;;;;;;61.75;35.05;;;8.50;99.90;;;;;;5067455;28;20040;-36
2023/04/17 04:54:48;;;;;;;64.18;34.70;;;8.50;99.90;;;;;;5073201;28;20039;-36
2023/04/17 04:57:14;;;;;;;67.28;36.38;;;8.50;99.90;;;;;;5069018;28;20082;-36
2023/04/17 04:59:40;;;;;;;64.05;35.17;;;8.70;99.90;;;;;;5066730;28;20039;-35
2023/04/17 05:02:05;;;;;;;70.10;35.40;;;8.50;99.90;;;;;;5071355;28;20124;-37
2023/04/17 05:04:31;;;;;;;60.45;34.28;;;8.60;99.90;;;;;;5064671;28;20490;-36
2023/04/17 05:06:57;;;;;;;58.38;33.17;;;8.60;99.90;;;;;;5058956;28;20080;-36
2023/04/17 05:09:22;;;;;;;60.55;32.97;;;8.60;99.90;;;;;;5060932;28;20032;-36
2023/04/17 05:11:48;;;;;;;60.22;33.90;;;8.50;99.90;;;;;;5053007;28;20047;-36
2023/04/17 05:14:14;;;;;;;60.58;34.17;;;8.50;99.90;;;;;;5069000;28;20036;-37
2023/04/17 05:16:40;;;;;;;61.00;33.85;;;8.50;99.90;;;;;;5053128;28;20032;-37
2023/04/17 05:19:06;;;;;;;58.67;33.78;;;8.50;99.90;;;;;;5060507;28;20043;-36
2023/04/17 05:21:32;;;;;;;59.40;32.65;;;8.60;99.90;;;;;;5067400;28;20037;-37
2023/04/17 05:23:58;;;;;;;62.75;33.90;;;8.60;99.90;;;;;;5064085;28;20043;-34
2023/04/17 05:26:25;;;;;;;61.47;34.30;;;8.60;99.90;;;;;;5059004;28;20429;-34
2023/04/17 05:28:50;;;;;;;63.38;33.67;;;8.60;99.90;;;;;;5068280;28;20032;-34
2023/04/17 05:31:16;;;;;;;55.85;30.30;;;8.70;99.90;;;;;;5066092;28;20039;-34
2023/04/17 05:33:42;;;;;;;57.53;32.25;;;8.70;99.90;;;;;;5066375;28;20046;-34
2023/04/17 05:36:11;;;;;;;52.53;30.45;;;8.60;99.90;;;;;;5069863;28;20135;-34
2023/04/17 05:38:36;;;;;;;56.53;31.13;;;8.70;99.90;;;;;;5064999;28;20363;-34
2023/04/17 05:41:02;;;;;;;55.33;31.50;;;8.70;99.90;;;;;;5066696;28;20123;-34
2023/04/17 05:43:28;;;;;;;58.70;32.35;;;8.80;99.90;;;;;;5064508;28;20055;-34
2023/04/17 05:45:54;;;;;;;59.55;32.22;;;8.70;99.90;;;;;;5074991;28;20028;-34
2023/04/17 05:48:19;;;;;;;56.33;31.70;;;8.90;99.90;;;;;;5071350;28;20043;-35
2023/04/17 05:50:46;;;;;;;53.40;29.73;;;8.70;99.90;;;;;;5082820;28;20040;-35
2023/04/17 05:53:11;;;;;;;51.75;30.95;;;8.80;99.90;;;;;;5064249;28;20042;-35
2023/04/17 05:55:38;;;;;;;52.10;30.17;;;8.80;99.90;;;;;;5072346;28;20033;-35
2023/04/17 05:58:04;;;;;;;54.80;32.38;;;8.80;99.90;;;;;;5075331;28;20039;-35
2023/04/17 06:00:30;;;;;;;58.92;33.33;;;8.80;99.90;;;;;;5066375;28;20044;-35
2023/04/17 06:02:55;;;;;;;54.55;31.23;;;8.90;99.90;;;;;;5061945;28;20028;-35
2023/04/17 06:05:24;;;;;;;57.85;33.03;;;8.90;99.90;;;;;;5064791;28;20048;-35
2023/04/17 06:07:50;;;;;;;56.78;32.10;;;8.90;99.90;;;;;;5068597;28;20067;-35
2023/04/17 06:10:16;;;;;;;60.45;33.10;;;8.90;99.90;;;;;;5070061;28;20464;-35
2023/04/17 06:12:42;;;;;;;50.33;31.55;;;8.90;99.90;;;;;;5072025;28;20032;-35
2023/04/17 06:15:08;;;;;;;52.22;29.48;;;9.00;99.90;;;;;;5075842;28;20055;-35
2023/04/17 06:17:35;;;;;;;51.95;29.58;;;9.00;99.90;;;;;;5070567;28;20040;-35
2023/04/17 06:20:01;;;;;;;56.20;31.10;;;9.00;99.90;;;;;;5076445;28;20370;-35
2023/04/17 06:22:27;;;;;;;47.85;29.52;;;9.10;99.90;;;;;;5065750;28;20040;-35
2023/04/17 06:24:52;;;;;;;54.38;30.83;;;9.10;99.90;;;;;;5071039;28;20063;-35
2023/04/17 06:27:18;;;;;;;48.35;29.00;;;9.20;99.90;;;;;;5063651;28;20047;-35
2023/04/17 06:29:44;;;;;;;47.97;28.30;;;9.10;99.90;;;;;;5083162;28;20258;-35
2023/04/17 06:32:10;;;;;;;46.67;28.35;;;9.20;99.90;;;;;;5072696;28;20093;-35
2023/04/17 06:34:35;;;;;;;47.03;29.75;;;9.20;99.90;;;;;;5072348;28;20028;-35
2023/04/17 06:37:01;;;;;;;48.30;29.27;;;9.20;99.90;;;;;;5066872;28;20056;-35
2023/04/17 06:39:27;;;;;;;46.15;28.60;;;9.20;99.90;;;;;;5063909;28;20064;-35
2023/04/17 06:41:52;;;;;;;48.63;28.55;;;9.30;99.90;;;;;;5071353;28;20028;-35
2023/04/17 06:44:18;;;;;;;43.20;27.63;;;9.50;99.90;;;;;;5072966;28;20176;-35
2023/04/17 06:46:44;;;;;;;44.85;27.75;;;9.50;99.90;;;;;;5066914;28;20072;-35
2023/04/17 06:49:10;;;;;;;43.22;28.17;;;9.50;99.90;;;;;;5073213;28;20051;-35
2023/04/17 06:51:36;;;;;;;39.67;26.02;;;9.60;99.90;;;;;;5074580;28;20496;-35
2023/04/17 06:54:01;;;;;;;42.97;26.05;;;9.70;99.90;;;;;;5066745;28;20076;-35
2023/04/17 06:56:27;;;;;;;45.05;27.83;;;9.60;99.90;;;;;;5075405;28;20050;-35
2023/04/17 06:58:53;;;;;;;40.15;26.00;;;9.60;99.90;;;;;;5066538;28;20507;-35
2023/04/17 07:01:19;;;;;;;41.50;27.63;;;9.70;99.90;;;;;;5072631;28;20039;-34
2023/04/17 07:03:45;;;;;;;43.30;27.00;;;9.70;99.90;;;;;;5068866;28;20043;-35
2023/04/17 07:06:11;;;;;;;41.08;26.25;;;9.80;99.90;;;;;;5078315;28;20047;-35
2023/04/17 07:08:37;;;;;;;41.65;28.05;;;9.90;99.90;;;;;;5063766;28;20028;-36
2023/04/17 07:11:03;;;;;;;44.80;27.05;;;10.00;99.90;;;;;;5074636;28;20409;-36
2023/04/17 07:13:31;;;;;;;38.58;26.50;;;10.10;99.90;;;;;;5073000;28;20036;-35
2023/04/17 07:16:00;;;;;;;38.80;26.75;;;10.00;99.90;;;;;;5073925;28;20097;-35
2023/04/17 07:18:28;;;;;;;39.05;24.98;;;10.20;99.90;;;;;;5065979;28;20432;-35
2023/04/17 07:20:54;;;;;;;40.85;26.15;;;10.10;99.90;;;;;;5072377;28;20097;-36
2023/04/17 07:23:20;;;;;;;39.42;25.88;;;10.30;99.90;;;;;;5091470;28;20040;-36
2023/04/17 07:25:46;;;;;;;37.30;26.02;;;10.40;99.90;;;;;;5069685;28;20039;-36
2023/04/17 07:28:13;;;;;;;38.75;26.60;;;10.40;99.90;;;;;;5069519;28;20089;-36
2023/04/17 07:30:40;;;;;;;39.70;25.90;;;10.50;99.90;;;;;;5069310;28;20036;-36
2023/04/17 07:33:06;;;;;;;38.35;25.92;;;10.70;99.90;;;;;;5064835;28;20040;-35
2023/04/17 07:35:31;;;;;;;39.00;27.30;;;10.80;99.90;;;;;;5066307;28;20107;-36
2023/04/17 07:38:00;;;;;;;35.40;25.42;;;11.00;99.90;;;;;;5068603;28;20093;-36
2023/04/17 07:40:26;;;;;;;33.97;24.98;;;11.10;99.90;;;;;;5067805;28;20103;-36
2023/04/17 07:42:52;;;;;;;34.28;24.00;;;11.30;99.90;;;;;;5063295;28;20040;-36
2023/04/17 07:45:18;;;;;;;36.83;25.58;;;11.30;99.90;;;;;;5062663;28;20066;-36
2023/04/17 07:47:45;;;;;;;35.85;25.65;;;11.50;99.90;;;;;;5064792;28;20033;-36
2023/04/17 07:50:11;;;;;;;36.92;24.13;;;11.70;99.90;;;;;;5069304;28;20036;-36
2023/04/17 07:52:36;;;;;;;38.35;25.80;;;11.70;99.90;;;;;;5060247;28;20101;-36
2023/04/17 07:55:02;;;;;;;34.22;25.50;;;11.70;99.90;;;;;;5062344;28;20054;-36
2023/04/17 07:57:28;;;;;;;35.33;25.55;;;11.70;99.90;;;;;;5063692;28;20028;-36
2023/04/17 07:59:54;;;;;;;35.53;26.73;;;11.70;99.90;;;;;;5065984;28;20059;-36
2023/04/17 08:02:20;;;;;;;35.03;25.50;;;12.00;99.90;;;;;;5069764;28;20040;-36
2023/04/17 08:04:46;;;;;;;33.60;24.92;;;11.90;99.90;;;;;;5073348;28;20044;-36
2023/04/17 08:07:11;;;;;;;36.45;25.50;;;12.20;99.90;;;;;;5060630;28;20490;-36
2023/04/17 08:09:38;;;;;;;33.63;25.77;;;12.10;99.90;;;;;;5073468;28;20426;-36
2023/04/17 08:12:04;;;;;;;35.20;25.27;;;12.20;99.90;;;;;;5061244;28;20386;-36
2023/04/17 08:14:30;;;;;;;36.75;25.73;;;12.10;99.90;;;;;;5073437;28;20032;-36
2023/04/17 08:16:56;;;;;;;34.80;25.85;;;12.30;99.90;;;;;;5059704;28;20106;-36
2023/04/17 08:19:22;;;;;;;36.22;26.98;;;12.20;99.90;;;;;;5058516;28;20397;-36
2023/04/17 08:21:48;;;;;;;37.00;26.45;;;12.30;99.90;;;;;;5073526;28;20039;-36
2023/04/17 08:24:14;;;;;;;38.63;26.83;;;12.10;99.90;;;;;;5082804;28;20473;-36
2023/04/17 08:26:40;;;;;;;37.22;26.75;;;12.00;99.90;;;;;;5065136;28;20044;-36
2023/04/17 08:29:06;;;;;;;36.90;26.25;;;12.10;99.90;;;;;;5066481;28;20400;-36
2023/04/17 08:31:35;;;;;;;36.38;26.45;;;12.30;99.90;;;;;;5066853;28;20036;-36
2023/04/17 08:34:03;;;;;;;37.63;26.55;;;12.40;99.90;;;;;;5068217;28;20342;-36
2023/04/17 08:36:30;;;;;;;34.80;25.67;;;12.30;99.90;;;;;;5062835;28;20115;-36
2023/04/17 08:38:56;;;;;;;33.10;25.58;;;12.50;99.90;;;;;;5069846;28;20163;-36
2023/04/17 08:41:26;;;;;;;34.42;25.70;;;12.60;99.90;;;;;;5052444;28;20043;-36
2023/04/17 08:43:55;;;;;;;36.63;27.00;;;12.50;99.90;;;;;;5071374;28;20473;-36
2023/04/17 08:46:21;;;;;;;34.22;25.55;;;12.80;99.90;;;;;;5060767;28;20047;-36
2023/04/17 08:48:46;;;;;;;34.78;25.42;;;12.80;99.90;;;;;;5063399;28;20040;-36
2023/04/17 08:51:13;;;;;;;37.22;26.70;;;12.80;99.90;;;;;;5073242;28;20040;-36
2023/04/17 08:53:39;;;;;;;37.00;27.42;;;12.90;99.90;;;;;;5070397;28;20297;-36
2023/04/17 08:56:05;;;;;;;34.38;27.05;;;13.00;99.90;;;;;;5056272;28;20040;-36
2023/04/17 08:58:35;;;;;;;35.90;27.25;;;13.40;99.90;;;;;;5058883;28;20501;-36
2023/04/17 09:01:11;;;;;;;36.50;28.42;;;13.50;99.90;;;;;;5064436;28;20058;-36
2023/04/17 09:03:48;;;;;;;35.50;27.33;;;13.60;99.90;;;;;;5065105;28;20040;-36
2023/04/17 09:06:14;;;;;;;34.80;27.27;;;13.90;99.90;;;;;;5063090;28;20093;-36
2023/04/17 09:09:00;;;;;;;35.78;26.63;;;13.70;99.90;;;;;;5082424;28;20493;-36
2023/04/17 09:11:27;;;;;;;33.78;27.83;;;14.00;99.90;;;;;;5059291;28;20549;-36
2023/04/17 09:13:53;;;;;;;36.90;28.52;;;14.00;99.90;;;;;;5074488;28;20081;-36
2023/04/17 09:16:19;;;;;;;34.92;28.55;;;14.20;99.90;;;;;;5074374;28;20047;-36
2023/04/17 09:18:46;;;;;;;34.78;26.88;;;14.00;99.90;;;;;;5071036;28;20075;-36
2023/04/17 09:21:14;;;;;;;38.70;28.80;;;14.30;99.90;;;;;;5069049;28;20056;-36
2023/04/17 09:23:53;;;;;;;35.78;27.65;;;14.30;99.90;;;;;;5074185;28;20126;-37
2023/04/17 09:26:29;;;;;;;35.85;28.05;;;14.60;99.90;;;;;;5068398;28;20040;-36
2023/04/17 09:29:07;;;;;;;34.55;27.58;;;14.70;99.90;;;;;;5064073;28;20040;-37
2023/04/17 09:31:36;;;;;;;33.80;27.05;;;15.10;99.90;;;;;;5067865;28;20047;-36
2023/04/17 09:34:03;;;;;;;32.40;26.75;;;15.10;99.90;;;;;;5066399;28;20030;-36
2023/04/17 09:36:31;;;;;;;31.80;27.83;;;15.30;99.90;;;;;;5070741;28;20032;-36
2023/04/17 09:38:59;;;;;;;32.92;26.75;;;15.50;99.90;;;;;;5065870;28;20429;-36
2023/04/17 09:41:30;;;;;;;32.60;24.35;;;16.00;99.90;;;;;;5067309;28;20040;-36
2023/04/17 09:44:04;;;;;;;30.05;25.35;;;16.40;99.90;;;;;;5071519;28;20032;-36
2023/04/17 09:46:44;;;;;;;29.13;24.75;;;16.40;99.90;;;;;;5074758;28;20094;-36
2023/04/17 09:49:28;;;;;;;30.33;25.17;;;16.40;99.90;;;;;;5073930;28;20119;-35
2023/04/17 09:51:55;;;;;;;;;;;16.50;99.90;;;;;;5063679;28;20485;-36
2023/04/17 09:54:22;;;;;;;28.20;24.75;;;16.60;99.90;;;;;;5065905;28;19923;-36
2023/04/17 09:56:48;;;;;;;26.23;23.40;;;16.70;99.90;;;;;;5091490;28;20072;-36
2023/04/17 09:59:15;;;;;;;29.35;23.88;;;16.80;99.90;;;;;;5074457;28;20032;-36
2023/04/17 10:01:42;;;;;;;27.95;23.98;;;16.90;99.90;;;;;;5076372;28;20480;-36
2023/04/17 10:04:07;;;;;;;25.77;23.08;;;16.50;99.90;;;;;;5072326;28;20511;-37
2023/04/17 10:06:35;;;;;;;25.50;22.70;;;16.60;99.90;;;;;;5071831;28;20033;-37
2023/04/17 10:09:03;;;;;;;24.38;21.85;;;16.60;99.90;;;;;;5074249;28;20043;-36
2023/04/17 10:11:41;;;;;;;25.40;22.80;;;16.90;99.90;;;;;;5074431;28;20036;-37
2023/04/17 10:14:26;;;;;;;25.05;22.58;;;17.70;99.90;;;;;;5074828;28;20032;-36
2023/04/17 10:16:53;;;;;;;24.48;22.08;;;18.10;99.90;;;;;;5093792;28;20103;-37
2023/04/17 10:19:33;;;;;;;23.25;20.90;;;18.90;99.90;;;;;;5067718;28;20039;-37
2023/04/17 10:22:17;;;;;;;23.52;20.67;;;19.00;99.90;;;;;;5094003;28;20496;-37
2023/04/17 10:24:52;;;;;;;23.90;21.13;;;19.20;99.90;;;;;;5085605;28;20064;-37
2023/04/17 10:27:24;;;;;;;22.67;20.33;;;19.20;99.90;;;;;;5065666;28;20089;-38
2023/04/17 10:30:01;;;;;;;19.45;17.45;;;19.40;99.90;;;;;;5064448;28;20040;-37
2023/04/17 10:32:29;;;;;;;19.45;17.45;;;19.50;99.90;;;;;;5064318;28;20055;-37
2023/04/17 10:35:22;;;;;;;18.30;16.50;;;19.90;99.90;;;;;;5070677;28;20469;-37
2023/04/17 10:37:50;;;;;;;17.38;15.50;;;20.30;99.90;;;;;;5057180;28;20036;-37
2023/04/17 10:40:19;;;;;;;17.33;15.55;;;20.20;99.90;;;;;;5061546;28;20037;-37
2023/04/17 10:43:21;;;;;;;16.27;14.65;;;20.30;99.90;;;;;;5067023;28;20036;-37
2023/04/17 10:46:03;;;;;;;18.77;16.25;;;20.90;99.90;;;;;;5082710;28;20032;-37
2023/04/17 10:48:49;;;;;;;18.15;16.45;;;21.30;99.90;;;;;;5072800;28;20041;-37
2023/04/17 10:51:25;;;;;;;16.85;15.13;;;21.50;84.70;;;;;;5069287;28;20102;-37
2023/04/17 10:53:56;;;;;;;15.55;14.05;;;22.10;91.50;;;;;;5073562;28;20038;-37
2023/04/17 10:56:25;;;;;;;15.65;14.05;;;21.40;81.40;;;;;;5090484;28;20036;-37
2023/04/17 10:59:00;;;;;;;15.15;13.73;;;21.20;97.40;;;;;;5066166;28;20032;-37
2023/04/17 11:01:29;;;;;;;15.75;14.25;;;20.30;96.30;;;;;;5065888;28;20541;-37
2023/04/17 11:03:58;;;;;;;14.15;12.85;;;20.00;89.90;;;;;;5060889;28;21174;-37
2023/04/17 11:06:30;;;;;;;14.23;12.75;;;19.70;99.90;;;;;;5065883;28;20461;-37
2023/04/17 11:08:56;;;;;;;14.15;12.75;;;19.70;98.50;;;;;;5074224;28;20040;-37
2023/04/17 11:11:22;;;;;;;16.00;11.30;;;20.20;99.90;;;;;;5070545;28;20036;-37
2023/04/17 11:13:48;;;;;;;14.77;11.23;;;20.50;95.50;;;;;;5074977;28;20111;-37
2023/04/17 11:16:15;;;;;;;12.43;11.23;;;21.10;83.70;;;;;;5058975;28;20119;-37
2023/04/17 11:18:44;;;;;;;12.50;11.32;;;21.50;78.30;;;;;;5073956;28;20163;-37
2023/04/17 11:21:15;;;;;;;13.48;12.15;;;22.70;76.90;;;;;;5066165;28;20098;-37
2023/04/17 11:23:52;;;;;;;13.63;12.35;;;23.40;72.80;;;;;;5070265;28;20032;-38
2023/04/17 11:26:22;;;;;;;12.80;11.60;;;22.90;64.00;;;;;;5070306;28;20520;-37
2023/04/17 11:28:48;;;;;;;13.50;12.05;;;23.10;65.60;;;;;;5070175;28;20510;-37
2023/04/17 11:31:13;;;;;;;12.43;10.85;;;23.30;65.00;;;;;;5063364;28;20035;-37
2023/04/17 11:33:40;;;;;;;12.15;10.93;;;23.20;65.20;;;;;;5071705;28;20513;-38
2023/04/17 11:36:06;;;;;;;13.60;12.20;;;22.90;64.80;;;;;;5059894;28;20377;-37
2023/04/17 11:38:32;;;;;;;13.73;12.43;;;22.20;64.20;;;;;;5070347;28;20440;-37
2023/04/17 11:41:00;;;;;;;13.55;12.35;;;21.60;64.20;;;;;;5071965;28;20405;-37
2023/04/17 11:43:28;;;;;;;13.55;12.15;;;20.70;64.90;;;;;;5065683;28;20040;-37
2023/04/17 11:45:56;;;;;;;13.40;12.20;;;20.70;67.60;;;;;;5068294;28;20040;-37
2023/04/17 11:48:24;;;;;;;13.30;12.10;;;21.50;68.20;;;;;;5067605;28;20080;-37
2023/04/17 11:50:57;;;;;;;12.38;11.20;;;22.00;69.30;;;;;;5070857;28;20040;-38
2023/04/17 11:53:23;;;;;;;13.80;11.77;;;22.80;67.70;;;;;;5072457;28;20101;-37
2023/04/17 11:56:15;;;;;;;13.18;11.82;;;23.30;66.90;;;;;;5071692;28;20035;-38
2023/04/17 11:58:45;;;;;;;13.82;12.52;;;24.00;65.40;;;;;;5070687;28;20075;-39
2023/04/17 12:01:12;;;;;;;12.85;11.55;;;24.10;65.60;;;;;;5089575;28;20071;-38
2023/04/17 12:03:38;;;;;;;13.13;11.88;;;24.30;64.80;;;;;;5063101;28;20047;-38
2023/04/17 12:06:05;;;;;;;14.30;13.00;;;23.80;63.50;;;;;;5072526;28;20031;-37
2023/04/17 12:08:45;;;;;;;13.90;12.60;;;23.40;62.50;;;;;;5062044;28;20044;-37
2023/04/17 12:11:27;;;;;;;13.20;11.98;;;22.60;61.50;;;;;;5068655;28;20044;-37
2023/04/17 12:13:54;;;;;;;13.43;12.20;;;21.90;62.70;;;;;;5068612;28;20089;-37
2023/04/17 12:16:20;;;;;;;15.07;13.68;;;21.50;64.10;;;;;;5063584;28;20036;-37
2023/04/17 12:18:46;;;;;;;14.23;12.88;;;20.90;64.90;;;;;;5063837;28;20039;-37
2023/04/17 12:21:13;;;;;;;13.95;12.55;;;20.40;66.20;;;;;;5074259;28;20076;-37
2023/04/17 12:23:40;;;;;;;14.45;12.93;;;20.10;67.40;;;;;;5061098;28;20036;-37
2023/04/17 12:26:06;;;;;;;14.52;13.13;;;20.40;67.80;;;;;;5064361;28;20048;-37
2023/04/17 12:28:32;;;;;;;14.77;13.50;;;21.20;68.00;;;;;;5081200;28;20036;-37
2023/04/17 12:30:58;;;;;;;15.02;13.55;;;22.10;66.20;;;;;;5073051;28;20047;-37
2023/04/17 12:33:24;;;;;;;16.33;14.48;;;21.70;65.20;;;;;;5060398;28;20040;-39
2023/04/17 12:35:50;;;;;;;16.40;14.65;;;21.20;65.20;;;;;;5066968;28;20389;-37